Talbot, Indiana
Current Conditions -  °F | °C
As of 3:55 AM on Saturday 29 Nov 2014 (Local Time) from KDNV Reporting Station
Clear Clear  
Wind Chill: -3°   Ceiling: Unl
Heat Index:   Visibility: 10mi
Dew Point: -2°   Wind: 9mph
Humidity: 78%   Direction: 170°S
Pressure: 29.86"   Gusts: NA
Location:  40.51°N, 87.45°W
Report Text: KDNV 290855Z AUTO 17008KT 10SM CLR 01/M02 A2986 RMK AO2 T00111023
Loading
Personal Weather Stations






























Interactive Weather Map New forecast layout! Learn more

10-Day Weather Forecast

Advertisements
Track Severe Weather on mobile